sensor_id;sensor_type;location;lat;lon;timestamp;P1;durP1;ratioP1;P2;durP2;ratioP2
7195;SDS011;3639;51.308;5.624;2024-03-17T00:02:16;1.80;;;1.70;;
7195;SDS011;3639;51.308;5.624;2024-03-17T00:04:45;1.30;;;1.30;;
7195;SDS011;3639;51.308;5.624;2024-03-17T00:07:11;2.27;;;1.93;;
7195;SDS011;3639;51.308;5.624;2024-03-17T00:09:37;1.77;;;1.67;;
7195;SDS011;3639;51.308;5.624;2024-03-17T00:12:03;1.70;;;1.60;;
7195;SDS011;3639;51.308;5.624;2024-03-17T00:14:29;1.60;;;1.50;;
7195;SDS011;3639;51.308;5.624;2024-03-17T00:16:55;1.80;;;1.70;;
7195;SDS011;3639;51.308;5.624;2024-03-17T00:19:20;1.90;;;1.80;;
7195;SDS011;3639;51.308;5.624;2024-03-17T00:21:49;2.23;;;1.77;;
7195;SDS011;3639;51.308;5.624;2024-03-17T00:24:19;1.40;;;1.40;;
7195;SDS011;3639;51.308;5.624;2024-03-17T00:26:45;1.83;;;1.73;;
7195;SDS011;3639;51.308;5.624;2024-03-17T00:29:14;2.17;;;2.07;;
7195;SDS011;3639;51.308;5.624;2024-03-17T00:31:40;1.60;;;1.50;;
7195;SDS011;3639;51.308;5.624;2024-03-17T00:34:06;3.30;;;1.80;;
7195;SDS011;3639;51.308;5.624;2024-03-17T00:36:31;1.80;;;1.70;;
7195;SDS011;3639;51.308;5.624;2024-03-17T00:38:57;1.90;;;1.80;;
7195;SDS011;3639;51.308;5.624;2024-03-17T00:41:23;2.03;;;1.83;;
7195;SDS011;3639;51.308;5.624;2024-03-17T00:43:49;1.37;;;1.37;;
7195;SDS011;3639;51.308;5.624;2024-03-17T00:46:17;1.80;;;1.70;;
7195;SDS011;3639;51.308;5.624;2024-03-17T00:48:43;1.67;;;1.57;;
7195;SDS011;3639;51.308;5.624;2024-03-17T00:51:14;1.73;;;1.63;;
7195;SDS011;3639;51.308;5.624;2024-03-17T00:53:40;1.90;;;1.80;;
7195;SDS011;3639;51.308;5.624;2024-03-17T00:56:06;1.97;;;1.87;;
7195;SDS011;3639;51.308;5.624;2024-03-17T00:58:31;1.60;;;1.50;;
7195;SDS011;3639;51.308;5.624;2024-03-17T01:00:57;1.70;;;1.60;;
7195;SDS011;3639;51.308;5.624;2024-03-17T01:03:23;1.70;;;1.60;;
7195;SDS011;3639;51.308;5.624;2024-03-17T01:05:48;1.67;;;1.57;;
7195;SDS011;3639;51.308;5.624;2024-03-17T01:08:17;3.27;;;1.70;;
7195;SDS011;3639;51.308;5.624;2024-03-17T01:10:43;1.53;;;1.43;;
7195;SDS011;3639;51.308;5.624;2024-03-17T01:13:10;2.07;;;1.97;;
7195;SDS011;3639;51.308;5.624;2024-03-17T01:15:36;2.13;;;2.03;;
7195;SDS011;3639;51.308;5.624;2024-03-17T01:18:02;2.33;;;1.60;;
7195;SDS011;3639;51.308;5.624;2024-03-17T01:20:29;1.73;;;1.63;;
7195;SDS011;3639;51.308;5.624;2024-03-17T01:22:59;1.93;;;1.57;;
7195;SDS011;3639;51.308;5.624;2024-03-17T01:25:24;1.93;;;1.60;;
7195;SDS011;3639;51.308;5.624;2024-03-17T01:27:51;2.20;;;2.10;;
7195;SDS011;3639;51.308;5.624;2024-03-17T01:30:17;2.43;;;2.03;;
7195;SDS011;3639;51.308;5.624;2024-03-17T01:32:44;2.03;;;1.87;;
7195;SDS011;3639;51.308;5.624;2024-03-17T01:35:10;2.07;;;1.93;;
7195;SDS011;3639;51.308;5.624;2024-03-17T01:37:37;1.90;;;1.80;;
7195;SDS011;3639;51.308;5.624;2024-03-17T01:40:03;2.23;;;2.03;;
7195;SDS011;3639;51.308;5.624;2024-03-17T01:42:35;1.40;;;1.40;;
7195;SDS011;3639;51.308;5.624;2024-03-17T01:47:49;1.57;;;1.47;;
7195;SDS011;3639;51.308;5.624;2024-03-17T01:50:15;2.23;;;2.13;;
7195;SDS011;3639;51.308;5.624;2024-03-17T01:52:44;1.60;;;1.50;;
7195;SDS011;3639;51.308;5.624;2024-03-17T01:55:11;1.80;;;1.70;;
7195;SDS011;3639;51.308;5.624;2024-03-17T01:57:37;1.70;;;1.60;;
7195;SDS011;3639;51.308;5.624;2024-03-17T02:00:03;2.27;;;2.17;;
7195;SDS011;3639;51.308;5.624;2024-03-17T02:02:33;1.40;;;1.40;;
7195;SDS011;3639;51.308;5.624;2024-03-17T02:04:59;2.53;;;2.03;;
7195;SDS011;3639;51.308;5.624;2024-03-17T02:07:25;1.90;;;1.73;;
7195;SDS011;3639;51.308;5.624;2024-03-17T02:09:50;2.93;;;2.07;;
7195;SDS011;3639;51.308;5.624;2024-03-17T02:12:16;1.70;;;1.60;;
7195;SDS011;3639;51.308;5.624;2024-03-17T02:14:42;1.60;;;1.50;;
7195;SDS011;3639;51.308;5.624;2024-03-17T02:17:07;1.60;;;1.50;;
7195;SDS011;3639;51.308;5.624;2024-03-17T02:19:33;1.80;;;1.70;;
7195;SDS011;3639;51.308;5.624;2024-03-17T02:21:59;2.03;;;1.83;;
7195;SDS011;3639;51.308;5.624;2024-03-17T02:24:25;1.87;;;1.77;;
7195;SDS011;3639;51.308;5.624;2024-03-17T02:26:51;1.57;;;1.50;;
7195;SDS011;3639;51.308;5.624;2024-03-17T02:29:16;2.90;;;2.47;;
7195;SDS011;3639;51.308;5.624;2024-03-17T02:31:42;1.60;;;1.50;;
7195;SDS011;3639;51.308;5.624;2024-03-17T02:34:08;2.97;;;1.83;;
7195;SDS011;3639;51.308;5.624;2024-03-17T02:36:33;2.13;;;2.03;;
7195;SDS011;3639;51.308;5.624;2024-03-17T02:38:59;1.70;;;1.60;;
7195;SDS011;3639;51.308;5.624;2024-03-17T02:41:43;1.40;;;1.40;;
7195;SDS011;3639;51.308;5.624;2024-03-17T02:44:09;1.70;;;1.60;;
7195;SDS011;3639;51.308;5.624;2024-03-17T02:46:36;1.40;;;1.40;;
7195;SDS011;3639;51.308;5.624;2024-03-17T02:49:02;1.97;;;1.87;;
7195;SDS011;3639;51.308;5.624;2024-03-17T02:51:28;1.80;;;1.70;;
7195;SDS011;3639;51.308;5.624;2024-03-17T02:53:54;1.80;;;1.70;;
7195;SDS011;3639;51.308;5.624;2024-03-17T02:56:19;1.30;;;1.30;;
7195;SDS011;3639;51.308;5.624;2024-03-17T02:58:46;4.80;;;2.73;;
7195;SDS011;3639;51.308;5.624;2024-03-17T03:01:13;2.03;;;1.93;;
7195;SDS011;3639;51.308;5.624;2024-03-17T03:03:43;1.63;;;1.53;;
7195;SDS011;3639;51.308;5.624;2024-03-17T03:06:08;1.90;;;1.80;;
7195;SDS011;3639;51.308;5.624;2024-03-17T03:08:40;1.93;;;1.83;;
7195;SDS011;3639;51.308;5.624;2024-03-17T03:11:07;3.83;;;2.17;;
7195;SDS011;3639;51.308;5.624;2024-03-17T03:13:43;1.40;;;1.30;;
7195;SDS011;3639;51.308;5.624;2024-03-17T03:16:10;1.90;;;1.80;;
7195;SDS011;3639;51.308;5.624;2024-03-17T03:18:38;1.50;;;1.43;;
7195;SDS011;3639;51.308;5.624;2024-03-17T03:21:04;1.60;;;1.50;;
7195;SDS011;3639;51.308;5.624;2024-03-17T03:23:31;1.60;;;1.50;;
7195;SDS011;3639;51.308;5.624;2024-03-17T03:25:57;1.50;;;1.40;;
7195;SDS011;3639;51.308;5.624;2024-03-17T03:28:30;2.20;;;2.00;;
7195;SDS011;3639;51.308;5.624;2024-03-17T03:30:56;1.40;;;1.30;;
7195;SDS011;3639;51.308;5.624;2024-03-17T03:33:23;1.30;;;1.30;;
7195;SDS011;3639;51.308;5.624;2024-03-17T03:35:48;2.50;;;2.27;;
7195;SDS011;3639;51.308;5.624;2024-03-17T03:38:15;1.80;;;1.70;;
7195;SDS011;3639;51.308;5.624;2024-03-17T03:40:42;1.57;;;1.53;;
7195;SDS011;3639;51.308;5.624;2024-03-17T03:43:10;1.77;;;1.60;;
7195;SDS011;3639;51.308;5.624;2024-03-17T03:45:36;1.73;;;1.63;;
7195;SDS011;3639;51.308;5.624;2024-03-17T03:48:02;1.50;;;1.40;;
7195;SDS011;3639;51.308;5.624;2024-03-17T03:50:28;1.83;;;1.73;;
7195;SDS011;3639;51.308;5.624;2024-03-17T03:52:54;1.60;;;1.50;;
7195;SDS011;3639;51.308;5.624;2024-03-17T03:55:20;1.97;;;1.83;;
7195;SDS011;3639;51.308;5.624;2024-03-17T03:57:46;2.20;;;2.00;;
7195;SDS011;3639;51.308;5.624;2024-03-17T04:00:13;2.27;;;2.17;;
7195;SDS011;3639;51.308;5.624;2024-03-17T04:02:39;1.87;;;1.77;;
7195;SDS011;3639;51.308;5.624;2024-03-17T04:05:05;1.83;;;1.73;;
7195;SDS011;3639;51.308;5.624;2024-03-17T04:07:31;1.50;;;1.40;;
7195;SDS011;3639;51.308;5.624;2024-03-17T04:09:57;2.00;;;1.90;;
7195;SDS011;3639;51.308;5.624;2024-03-17T04:12:23;1.80;;;1.70;;
7195;SDS011;3639;51.308;5.624;2024-03-17T04:14:49;3.67;;;1.50;;
7195;SDS011;3639;51.308;5.624;2024-03-17T04:17:18;2.23;;;2.07;;
7195;SDS011;3639;51.308;5.624;2024-03-17T04:19:50;2.00;;;1.90;;
7195;SDS011;3639;51.308;5.624;2024-03-17T04:22:16;1.30;;;1.30;;
7195;SDS011;3639;51.308;5.624;2024-03-17T04:24:51;1.60;;;1.50;;
7195;SDS011;3639;51.308;5.624;2024-03-17T04:27:21;2.03;;;1.83;;
7195;SDS011;3639;51.308;5.624;2024-03-17T04:29:53;1.60;;;1.53;;
7195;SDS011;3639;51.308;5.624;2024-03-17T04:32:20;1.47;;;1.43;;
7195;SDS011;3639;51.308;5.624;2024-03-17T04:34:46;1.60;;;1.50;;
7195;SDS011;3639;51.308;5.624;2024-03-17T04:37:12;1.70;;;1.60;;
7195;SDS011;3639;51.308;5.624;2024-03-17T04:39:38;1.40;;;1.40;;
7195;SDS011;3639;51.308;5.624;2024-03-17T04:42:05;1.70;;;1.60;;
7195;SDS011;3639;51.308;5.624;2024-03-17T04:44:31;1.80;;;1.70;;
7195;SDS011;3639;51.308;5.624;2024-03-17T04:46:57;1.50;;;1.40;;
7195;SDS011;3639;51.308;5.624;2024-03-17T04:49:23;2.17;;;2.00;;
7195;SDS011;3639;51.308;5.624;2024-03-17T04:51:48;1.83;;;1.73;;
7195;SDS011;3639;51.308;5.624;2024-03-17T04:54:14;1.90;;;1.70;;
7195;SDS011;3639;51.308;5.624;2024-03-17T04:56:40;2.00;;;1.90;;
7195;SDS011;3639;51.308;5.624;2024-03-17T04:59:05;2.07;;;1.97;;
7195;SDS011;3639;51.308;5.624;2024-03-17T05:01:31;2.13;;;1.93;;
7195;SDS011;3639;51.308;5.624;2024-03-17T05:04:01;2.07;;;1.87;;
7195;SDS011;3639;51.308;5.624;2024-03-17T05:06:29;1.40;;;1.40;;
7195;SDS011;3639;51.308;5.624;2024-03-17T05:08:55;1.80;;;1.70;;
7195;SDS011;3639;51.308;5.624;2024-03-17T05:11:20;1.97;;;1.83;;
7195;SDS011;3639;51.308;5.624;2024-03-17T05:13:46;2.83;;;1.93;;
7195;SDS011;3639;51.308;5.624;2024-03-17T05:16:11;1.70;;;1.60;;
7195;SDS011;3639;51.308;5.624;2024-03-17T05:18:37;2.57;;;2.37;;
7195;SDS011;3639;51.308;5.624;2024-03-17T05:21:05;1.40;;;1.40;;
7195;SDS011;3639;51.308;5.624;2024-03-17T05:23:32;2.00;;;1.90;;
7195;SDS011;3639;51.308;5.624;2024-03-17T05:25:59;1.50;;;1.40;;
7195;SDS011;3639;51.308;5.624;2024-03-17T05:28:26;2.13;;;1.90;;
7195;SDS011;3639;51.308;5.624;2024-03-17T05:30:52;1.77;;;1.67;;
7195;SDS011;3639;51.308;5.624;2024-03-17T05:33:19;1.73;;;1.60;;
7195;SDS011;3639;51.308;5.624;2024-03-17T05:35:55;3.90;;;1.80;;
7195;SDS011;3639;51.308;5.624;2024-03-17T05:38:25;1.30;;;1.30;;
7195;SDS011;3639;51.308;5.624;2024-03-17T05:41:01;1.43;;;1.40;;
7195;SDS011;3639;51.308;5.624;2024-03-17T05:43:29;1.73;;;1.63;;
7195;SDS011;3639;51.308;5.624;2024-03-17T05:45:59;1.70;;;1.60;;
7195;SDS011;3639;51.308;5.624;2024-03-17T05:48:31;1.90;;;1.80;;
7195;SDS011;3639;51.308;5.624;2024-03-17T05:53:35;2.27;;;2.07;;
7195;SDS011;3639;51.308;5.624;2024-03-17T05:56:02;1.90;;;1.80;;
7195;SDS011;3639;51.308;5.624;2024-03-17T05:58:29;1.93;;;1.83;;
7195;SDS011;3639;51.308;5.624;2024-03-17T06:00:55;1.70;;;1.60;;
7195;SDS011;3639;51.308;5.624;2024-03-17T06:03:20;1.60;;;1.50;;
7195;SDS011;3639;51.308;5.624;2024-03-17T06:05:46;3.00;;;1.80;;
7195;SDS011;3639;51.308;5.624;2024-03-17T06:08:13;1.80;;;1.70;;
7195;SDS011;3639;51.308;5.624;2024-03-17T06:10:46;2.03;;;1.93;;
7195;SDS011;3639;51.308;5.624;2024-03-17T06:13:13;2.13;;;2.03;;
7195;SDS011;3639;51.308;5.624;2024-03-17T06:15:41;1.70;;;1.60;;
7195;SDS011;3639;51.308;5.624;2024-03-17T06:18:08;2.60;;;2.40;;
7195;SDS011;3639;51.308;5.624;2024-03-17T06:20:42;1.90;;;1.80;;
7195;SDS011;3639;51.308;5.624;2024-03-17T06:23:08;1.73;;;1.63;;
7195;SDS011;3639;51.308;5.624;2024-03-17T06:25:44;1.67;;;1.57;;
7195;SDS011;3639;51.308;5.624;2024-03-17T06:28:11;2.17;;;2.07;;
7195;SDS011;3639;51.308;5.624;2024-03-17T06:30:39;1.40;;;1.40;;
7195;SDS011;3639;51.308;5.624;2024-03-17T06:33:10;1.60;;;1.50;;
7195;SDS011;3639;51.308;5.624;2024-03-17T06:35:37;1.70;;;1.60;;
7195;SDS011;3639;51.308;5.624;2024-03-17T06:38:02;1.60;;;1.50;;
7195;SDS011;3639;51.308;5.624;2024-03-17T06:40:28;1.50;;;1.40;;
7195;SDS011;3639;51.308;5.624;2024-03-17T06:42:55;1.90;;;1.80;;
7195;SDS011;3639;51.308;5.624;2024-03-17T06:45:21;2.50;;;2.20;;
7195;SDS011;3639;51.308;5.624;2024-03-17T06:47:47;1.40;;;1.40;;
7195;SDS011;3639;51.308;5.624;2024-03-17T06:50:12;1.63;;;1.53;;
7195;SDS011;3639;51.308;5.624;2024-03-17T06:52:38;1.53;;;1.47;;
7195;SDS011;3639;51.308;5.624;2024-03-17T06:55:04;1.60;;;1.50;;
7195;SDS011;3639;51.308;5.624;2024-03-17T06:57:31;1.80;;;1.70;;
7195;SDS011;3639;51.308;5.624;2024-03-17T06:59:58;1.80;;;1.70;;
7195;SDS011;3639;51.308;5.624;2024-03-17T07:02:24;1.30;;;1.30;;
7195;SDS011;3639;51.308;5.624;2024-03-17T07:04:50;1.30;;;1.27;;
7195;SDS011;3639;51.308;5.624;2024-03-17T07:07:15;1.97;;;1.77;;
7195;SDS011;3639;51.308;5.624;2024-03-17T07:09:41;1.53;;;1.40;;
7195;SDS011;3639;51.308;5.624;2024-03-17T07:12:07;1.37;;;1.37;;
7195;SDS011;3639;51.308;5.624;2024-03-17T07:14:33;1.30;;;1.27;;
7195;SDS011;3639;51.308;5.624;2024-03-17T07:16:59;1.73;;;1.63;;
7195;SDS011;3639;51.308;5.624;2024-03-17T07:19:25;1.63;;;1.53;;
7195;SDS011;3639;51.308;5.624;2024-03-17T07:21:50;1.37;;;1.37;;
7195;SDS011;3639;51.308;5.624;2024-03-17T07:24:16;1.47;;;1.40;;
7195;SDS011;3639;51.308;5.624;2024-03-17T07:26:41;1.70;;;1.60;;
7195;SDS011;3639;51.308;5.624;2024-03-17T07:29:07;2.13;;;2.03;;
7195;SDS011;3639;51.308;5.624;2024-03-17T07:31:33;1.83;;;1.73;;
7195;SDS011;3639;51.308;5.624;2024-03-17T07:33:59;1.20;;;1.20;;
7195;SDS011;3639;51.308;5.624;2024-03-17T07:36:25;3.03;;;1.60;;
7195;SDS011;3639;51.308;5.624;2024-03-17T07:38:50;1.80;;;1.70;;
7195;SDS011;3639;51.308;5.624;2024-03-17T07:41:17;1.40;;;1.30;;
7195;SDS011;3639;51.308;5.624;2024-03-17T07:43:44;1.60;;;1.50;;
7195;SDS011;3639;51.308;5.624;2024-03-17T07:46:11;1.53;;;1.43;;
7195;SDS011;3639;51.308;5.624;2024-03-17T07:48:37;2.57;;;1.83;;
7195;SDS011;3639;51.308;5.624;2024-03-17T07:51:05;1.27;;;1.27;;
7195;SDS011;3639;51.308;5.624;2024-03-17T07:53:36;2.00;;;1.83;;
7195;SDS011;3639;51.308;5.624;2024-03-17T07:56:04;1.20;;;1.20;;
7195;SDS011;3639;51.308;5.624;2024-03-17T07:58:37;1.63;;;1.53;;
7195;SDS011;3639;51.308;5.624;2024-03-17T08:01:05;2.83;;;1.80;;
7195;SDS011;3639;51.308;5.624;2024-03-17T08:03:32;1.83;;;1.73;;
7195;SDS011;3639;51.308;5.624;2024-03-17T08:05:59;1.43;;;1.37;;
7195;SDS011;3639;51.308;5.624;2024-03-17T08:08:25;1.53;;;1.43;;
7195;SDS011;3639;51.308;5.624;2024-03-17T08:10:51;1.50;;;1.40;;
7195;SDS011;3639;51.308;5.624;2024-03-17T08:13:17;1.20;;;1.20;;
7195;SDS011;3639;51.308;5.624;2024-03-17T08:15:44;1.23;;;1.23;;
7195;SDS011;3639;51.308;5.624;2024-03-17T08:18:11;1.73;;;1.63;;
7195;SDS011;3639;51.308;5.624;2024-03-17T08:20:40;1.40;;;1.37;;
7195;SDS011;3639;51.308;5.624;2024-03-17T08:23:07;1.40;;;1.30;;
7195;SDS011;3639;51.308;5.624;2024-03-17T08:25:33;1.80;;;1.40;;
7195;SDS011;3639;51.308;5.624;2024-03-17T08:27:59;3.90;;;2.07;;
7195;SDS011;3639;51.308;5.624;2024-03-17T08:30:25;1.17;;;1.17;;
7195;SDS011;3639;51.308;5.624;2024-03-17T08:32:51;1.33;;;1.33;;
7195;SDS011;3639;51.308;5.624;2024-03-17T08:35:17;1.50;;;1.40;;
7195;SDS011;3639;51.308;5.624;2024-03-17T08:37:42;1.73;;;1.37;;
7195;SDS011;3639;51.308;5.624;2024-03-17T08:40:09;1.70;;;1.60;;
7195;SDS011;3639;51.308;5.624;2024-03-17T08:42:35;1.60;;;1.50;;
7195;SDS011;3639;51.308;5.624;2024-03-17T08:45:01;1.43;;;1.33;;
7195;SDS011;3639;51.308;5.624;2024-03-17T08:47:27;2.53;;;2.33;;
7195;SDS011;3639;51.308;5.624;2024-03-17T08:49:53;1.77;;;1.67;;
7195;SDS011;3639;51.308;5.624;2024-03-17T08:52:19;1.53;;;1.43;;
7195;SDS011;3639;51.308;5.624;2024-03-17T08:54:49;1.27;;;1.27;;
7195;SDS011;3639;51.308;5.624;2024-03-17T08:57:17;1.60;;;1.50;;
7195;SDS011;3639;51.308;5.624;2024-03-17T08:59:46;1.43;;;1.33;;
7195;SDS011;3639;51.308;5.624;2024-03-17T09:02:12;1.50;;;1.40;;
7195;SDS011;3639;51.308;5.624;2024-03-17T09:04:41;2.47;;;1.23;;
7195;SDS011;3639;51.308;5.624;2024-03-17T09:07:07;1.50;;;1.40;;
7195;SDS011;3639;51.308;5.624;2024-03-17T09:09:33;1.90;;;1.70;;
7195;SDS011;3639;51.308;5.624;2024-03-17T09:11:58;1.53;;;1.43;;
7195;SDS011;3639;51.308;5.624;2024-03-17T09:14:24;1.63;;;1.53;;
7195;SDS011;3639;51.308;5.624;2024-03-17T09:16:50;1.57;;;1.47;;
7195;SDS011;3639;51.308;5.624;2024-03-17T09:19:15;1.00;;;1.00;;
7195;SDS011;3639;51.308;5.624;2024-03-17T09:21:41;1.93;;;1.73;;
7195;SDS011;3639;51.308;5.624;2024-03-17T09:24:07;1.57;;;1.47;;
7195;SDS011;3639;51.308;5.624;2024-03-17T09:26:33;1.20;;;1.10;;
7195;SDS011;3639;51.308;5.624;2024-03-17T09:29:00;1.20;;;1.20;;
7195;SDS011;3639;51.308;5.624;2024-03-17T09:31:26;1.30;;;1.20;;
7195;SDS011;3639;51.308;5.624;2024-03-17T09:33:51;1.33;;;1.23;;
7195;SDS011;3639;51.308;5.624;2024-03-17T09:36:17;1.30;;;1.13;;
7195;SDS011;3639;51.308;5.624;2024-03-17T09:38:43;1.30;;;1.20;;
7195;SDS011;3639;51.308;5.624;2024-03-17T09:41:17;1.40;;;1.23;;
7195;SDS011;3639;51.308;5.624;2024-03-17T09:43:53;1.13;;;1.13;;
7195;SDS011;3639;51.308;5.624;2024-03-17T09:46:19;1.97;;;1.50;;
7195;SDS011;3639;51.308;5.624;2024-03-17T09:48:45;1.37;;;1.20;;
7195;SDS011;3639;51.308;5.624;2024-03-17T09:51:18;1.30;;;1.20;;
7195;SDS011;3639;51.308;5.624;2024-03-17T09:53:48;1.20;;;1.20;;
7195;SDS011;3639;51.308;5.624;2024-03-17T09:56:15;1.03;;;1.03;;
7195;SDS011;3639;51.308;5.624;2024-03-17T09:58:43;1.57;;;1.47;;
7195;SDS011;3639;51.308;5.624;2024-03-17T10:01:09;1.40;;;1.30;;
7195;SDS011;3639;51.308;5.624;2024-03-17T10:03:45;1.50;;;1.33;;
7195;SDS011;3639;51.308;5.624;2024-03-17T10:06:20;1.60;;;1.47;;
7195;SDS011;3639;51.308;5.624;2024-03-17T10:08:50;1.37;;;1.20;;
7195;SDS011;3639;51.308;5.624;2024-03-17T10:11:18;1.20;;;1.10;;
7195;SDS011;3639;51.308;5.624;2024-03-17T10:13:45;1.13;;;1.03;;
7195;SDS011;3639;51.308;5.624;2024-03-17T10:16:25;1.00;;;1.00;;
7195;SDS011;3639;51.308;5.624;2024-03-17T10:21:38;1.23;;;1.13;;
7195;SDS011;3639;51.308;5.624;2024-03-17T10:24:08;1.10;;;1.00;;
7195;SDS011;3639;51.308;5.624;2024-03-17T10:26:36;1.03;;;0.93;;
7195;SDS011;3639;51.308;5.624;2024-03-17T10:29:26;0.90;;;0.90;;
7195;SDS011;3639;51.308;5.624;2024-03-17T10:31:52;1.10;;;1.00;;
7195;SDS011;3639;51.308;5.624;2024-03-17T10:34:19;1.23;;;1.13;;
7195;SDS011;3639;51.308;5.624;2024-03-17T10:36:45;0.90;;;0.90;;
7195;SDS011;3639;51.308;5.624;2024-03-17T10:39:24;1.17;;;1.13;;
7195;SDS011;3639;51.308;5.624;2024-03-17T10:41:56;1.03;;;1.03;;
7195;SDS011;3639;51.308;5.624;2024-03-17T10:44:25;1.30;;;1.23;;
7195;SDS011;3639;51.308;5.624;2024-03-17T10:46:52;1.73;;;1.27;;
7195;SDS011;3639;51.308;5.624;2024-03-17T10:49:20;0.90;;;0.90;;
7195;SDS011;3639;51.308;5.624;2024-03-17T10:51:49;1.13;;;1.00;;
7195;SDS011;3639;51.308;5.624;2024-03-17T10:54:23;1.10;;;1.00;;
7195;SDS011;3639;51.308;5.624;2024-03-17T10:56:56;0.97;;;0.93;;
7195;SDS011;3639;51.308;5.624;2024-03-17T10:59:41;1.00;;;1.00;;
7195;SDS011;3639;51.308;5.624;2024-03-17T11:02:20;0.90;;;0.90;;
7195;SDS011;3639;51.308;5.624;2024-03-17T11:04:51;1.00;;;1.00;;
7195;SDS011;3639;51.308;5.624;2024-03-17T11:07:18;1.20;;;1.10;;
7195;SDS011;3639;51.308;5.624;2024-03-17T11:09:45;2.20;;;1.20;;
7195;SDS011;3639;51.308;5.624;2024-03-17T11:15:41;1.20;;;1.10;;
7195;SDS011;3639;51.308;5.624;2024-03-17T11:20:34;0.80;;;0.80;;
7195;SDS011;3639;51.308;5.624;2024-03-17T11:23:02;1.23;;;1.20;;
7195;SDS011;3639;51.308;5.624;2024-03-17T11:28:02;0.80;;;0.80;;
7195;SDS011;3639;51.308;5.624;2024-03-17T11:41:41;1.30;;;1.00;;
7195;SDS011;3639;51.308;5.624;2024-03-17T11:49:26;0.83;;;0.83;;
7195;SDS011;3639;51.308;5.624;2024-03-17T11:51:53;0.70;;;0.70;;
7195;SDS011;3639;51.308;5.624;2024-03-17T11:54:22;0.80;;;0.80;;
7195;SDS011;3639;51.308;5.624;2024-03-17T11:56:52;2.00;;;1.10;;
7195;SDS011;3639;51.308;5.624;2024-03-17T11:59:19;1.00;;;1.00;;
7195;SDS011;3639;51.308;5.624;2024-03-17T12:01:45;1.73;;;1.20;;
7195;SDS011;3639;51.308;5.624;2024-03-17T12:04:13;1.27;;;1.17;;
7195;SDS011;3639;51.308;5.624;2024-03-17T12:06:39;0.93;;;0.93;;
7195;SDS011;3639;51.308;5.624;2024-03-17T12:11:45;1.50;;;1.30;;
7195;SDS011;3639;51.308;5.624;2024-03-17T12:14:31;1.37;;;1.27;;
7195;SDS011;3639;51.308;5.624;2024-03-17T12:16:58;1.10;;;1.00;;
7195;SDS011;3639;51.308;5.624;2024-03-17T12:19:25;1.30;;;1.20;;
7195;SDS011;3639;51.308;5.624;2024-03-17T12:21:52;1.07;;;1.00;;
7195;SDS011;3639;51.308;5.624;2024-03-17T12:24:20;0.90;;;0.90;;
7195;SDS011;3639;51.308;5.624;2024-03-17T12:26:48;1.17;;;1.10;;
7195;SDS011;3639;51.308;5.624;2024-03-17T12:29:21;0.90;;;0.90;;
7195;SDS011;3639;51.308;5.624;2024-03-17T12:31:55;0.90;;;0.90;;
7195;SDS011;3639;51.308;5.624;2024-03-17T12:34:28;1.53;;;1.17;;
7195;SDS011;3639;51.308;5.624;2024-03-17T12:36:55;1.70;;;0.80;;
7195;SDS011;3639;51.308;5.624;2024-03-17T12:39:23;1.33;;;1.00;;
7195;SDS011;3639;51.308;5.624;2024-03-17T12:42:12;1.20;;;1.10;;
7195;SDS011;3639;51.308;5.624;2024-03-17T12:44:40;1.20;;;1.10;;
7195;SDS011;3639;51.308;5.624;2024-03-17T12:47:16;0.90;;;0.87;;
7195;SDS011;3639;51.308;5.624;2024-03-17T12:49:46;1.30;;;1.20;;
7195;SDS011;3639;51.308;5.624;2024-03-17T12:54:56;1.00;;;0.90;;
7195;SDS011;3639;51.308;5.624;2024-03-17T12:57:51;1.30;;;1.20;;
7195;SDS011;3639;51.308;5.624;2024-03-17T13:00:44;1.77;;;1.57;;
7195;SDS011;3639;51.308;5.624;2024-03-17T13:03:10;1.53;;;1.10;;
7195;SDS011;3639;51.308;5.624;2024-03-17T13:05:49;1.00;;;1.00;;
7195;SDS011;3639;51.308;5.624;2024-03-17T13:08:15;0.90;;;0.90;;
7195;SDS011;3639;51.308;5.624;2024-03-17T13:10:41;0.80;;;0.80;;
7195;SDS011;3639;51.308;5.624;2024-03-17T13:13:08;1.30;;;1.20;;
7195;SDS011;3639;51.308;5.624;2024-03-17T13:15:36;0.80;;;0.80;;
7195;SDS011;3639;51.308;5.624;2024-03-17T13:18:02;2.13;;;1.10;;
7195;SDS011;3639;51.308;5.624;2024-03-17T13:20:31;0.80;;;0.80;;
7195;SDS011;3639;51.308;5.624;2024-03-17T13:22:57;1.13;;;1.00;;
7195;SDS011;3639;51.308;5.624;2024-03-17T13:25:28;1.23;;;1.13;;
7195;SDS011;3639;51.308;5.624;2024-03-17T13:27:59;0.80;;;0.80;;
7195;SDS011;3639;51.308;5.624;2024-03-17T13:30:25;0.97;;;0.87;;
7195;SDS011;3639;51.308;5.624;2024-03-17T13:32:53;1.00;;;0.97;;
7195;SDS011;3639;51.308;5.624;2024-03-17T13:35:26;1.03;;;0.90;;
7195;SDS011;3639;51.308;5.624;2024-03-17T13:37:53;0.70;;;0.70;;
7195;SDS011;3639;51.308;5.624;2024-03-17T13:40:19;1.07;;;0.97;;
7195;SDS011;3639;51.308;5.624;2024-03-17T13:42:50;0.90;;;0.90;;
7195;SDS011;3639;51.308;5.624;2024-03-17T13:45:17;1.00;;;0.90;;
7195;SDS011;3639;51.308;5.624;2024-03-17T13:47:58;1.07;;;0.97;;
7195;SDS011;3639;51.308;5.624;2024-03-17T13:50:25;0.80;;;0.80;;
7195;SDS011;3639;51.308;5.624;2024-03-17T13:52:50;0.87;;;0.80;;
7195;SDS011;3639;51.308;5.624;2024-03-17T13:55:23;1.37;;;1.10;;
7195;SDS011;3639;51.308;5.624;2024-03-17T13:57:51;0.77;;;0.77;;
7195;SDS011;3639;51.308;5.624;2024-03-17T14:00:21;0.90;;;0.90;;
7195;SDS011;3639;51.308;5.624;2024-03-17T14:02:49;0.80;;;0.80;;
7195;SDS011;3639;51.308;5.624;2024-03-17T14:05:19;0.80;;;0.80;;
7195;SDS011;3639;51.308;5.624;2024-03-17T14:07:46;0.80;;;0.80;;
7195;SDS011;3639;51.308;5.624;2024-03-17T14:10:13;0.90;;;0.90;;
7195;SDS011;3639;51.308;5.624;2024-03-17T14:12:42;0.70;;;0.70;;
7195;SDS011;3639;51.308;5.624;2024-03-17T14:15:09;1.00;;;0.80;;
7195;SDS011;3639;51.308;5.624;2024-03-17T14:17:40;0.80;;;0.80;;
7195;SDS011;3639;51.308;5.624;2024-03-17T14:20:07;0.80;;;0.80;;
7195;SDS011;3639;51.308;5.624;2024-03-17T14:22:36;0.70;;;0.70;;
7195;SDS011;3639;51.308;5.624;2024-03-17T14:25:06;0.90;;;0.90;;
7195;SDS011;3639;51.308;5.624;2024-03-17T14:27:32;1.00;;;0.90;;
7195;SDS011;3639;51.308;5.624;2024-03-17T14:29:58;1.10;;;1.00;;
7195;SDS011;3639;51.308;5.624;2024-03-17T14:32:24;0.80;;;0.80;;
7195;SDS011;3639;51.308;5.624;2024-03-17T14:34:49;0.97;;;0.90;;
7195;SDS011;3639;51.308;5.624;2024-03-17T14:37:15;0.70;;;0.70;;
7195;SDS011;3639;51.308;5.624;2024-03-17T14:39:41;0.80;;;0.80;;
7195;SDS011;3639;51.308;5.624;2024-03-17T14:42:06;1.10;;;1.03;;
7195;SDS011;3639;51.308;5.624;2024-03-17T14:44:33;0.80;;;0.80;;
7195;SDS011;3639;51.308;5.624;2024-03-17T14:47:00;0.80;;;0.80;;
7195;SDS011;3639;51.308;5.624;2024-03-17T14:49:26;0.80;;;0.80;;
7195;SDS011;3639;51.308;5.624;2024-03-17T14:51:52;0.90;;;0.90;;
7195;SDS011;3639;51.308;5.624;2024-03-17T14:54:18;0.77;;;0.70;;
7195;SDS011;3639;51.308;5.624;2024-03-17T14:56:44;0.90;;;0.90;;
7195;SDS011;3639;51.308;5.624;2024-03-17T14:59:10;0.87;;;0.87;;
7195;SDS011;3639;51.308;5.624;2024-03-17T15:01:37;0.70;;;0.70;;
7195;SDS011;3639;51.308;5.624;2024-03-17T15:04:02;0.80;;;0.80;;
7195;SDS011;3639;51.308;5.624;2024-03-17T15:06:28;1.30;;;0.80;;
7195;SDS011;3639;51.308;5.624;2024-03-17T15:08:54;0.80;;;0.80;;
7195;SDS011;3639;51.308;5.624;2024-03-17T15:11:19;0.80;;;0.80;;
7195;SDS011;3639;51.308;5.624;2024-03-17T15:13:45;0.77;;;0.77;;
7195;SDS011;3639;51.308;5.624;2024-03-17T15:16:10;0.90;;;0.90;;
7195;SDS011;3639;51.308;5.624;2024-03-17T15:18:37;0.80;;;0.80;;
7195;SDS011;3639;51.308;5.624;2024-03-17T15:21:03;0.63;;;0.63;;
7195;SDS011;3639;51.308;5.624;2024-03-17T15:23:31;0.70;;;0.70;;
7195;SDS011;3639;51.308;5.624;2024-03-17T15:26:04;1.10;;;0.80;;
7195;SDS011;3639;51.308;5.624;2024-03-17T15:28:34;0.77;;;0.77;;
7195;SDS011;3639;51.308;5.624;2024-03-17T15:31:01;1.23;;;1.13;;
7195;SDS011;3639;51.308;5.624;2024-03-17T15:33:28;0.80;;;0.80;;
7195;SDS011;3639;51.308;5.624;2024-03-17T15:35:53;0.70;;;0.70;;
7195;SDS011;3639;51.308;5.624;2024-03-17T15:38:19;1.23;;;1.00;;
7195;SDS011;3639;51.308;5.624;2024-03-17T15:40:47;1.27;;;0.80;;
7195;SDS011;3639;51.308;5.624;2024-03-17T15:43:12;0.77;;;0.77;;
7195;SDS011;3639;51.308;5.624;2024-03-17T15:45:38;0.80;;;0.80;;
7195;SDS011;3639;51.308;5.624;2024-03-17T15:48:04;1.07;;;0.93;;
7195;SDS011;3639;51.308;5.624;2024-03-17T15:50:30;0.80;;;0.80;;
7195;SDS011;3639;51.308;5.624;2024-03-17T15:52:56;0.80;;;0.80;;
7195;SDS011;3639;51.308;5.624;2024-03-17T15:55:22;0.90;;;0.90;;
7195;SDS011;3639;51.308;5.624;2024-03-17T15:57:48;0.90;;;0.90;;